sensor_id;sensor_type;location;lat;lon;timestamp;temperature;humidity
47168;DHT22;32931;47.778;17.806;2023-04-24T00:01:18;17.60;86.10
47168;DHT22;32931;47.778;17.806;2023-04-24T00:03:45;17.60;86.70
47168;DHT22;32931;47.778;17.806;2023-04-24T00:06:11;17.60;87.10
47168;DHT22;32931;47.778;17.806;2023-04-24T00:08:37;17.60;87.90
47168;DHT22;32931;47.778;17.806;2023-04-24T00:11:03;17.50;88.20
47168;DHT22;32931;47.778;17.806;2023-04-24T00:13:29;17.50;88.50
47168;DHT22;32931;47.778;17.806;2023-04-24T00:15:56;17.60;88.90
47168;DHT22;32931;47.778;17.806;2023-04-24T00:18:22;17.60;88.40
47168;DHT22;32931;47.778;17.806;2023-04-24T00:20:48;17.60;88.60
47168;DHT22;32931;47.778;17.806;2023-04-24T00:23:14;17.50;88.10
47168;DHT22;32931;47.778;17.806;2023-04-24T00:25:40;17.50;87.50
47168;DHT22;32931;47.778;17.806;2023-04-24T00:28:07;17.50;87.50
47168;DHT22;32931;47.778;17.806;2023-04-24T00:30:33;17.50;86.90
47168;DHT22;32931;47.778;17.806;2023-04-24T00:32:59;17.50;87.00
47168;DHT22;32931;47.778;17.806;2023-04-24T00:35:25;17.50;86.80
47168;DHT22;32931;47.778;17.806;2023-04-24T00:37:51;17.40;87.20
47168;DHT22;32931;47.778;17.806;2023-04-24T00:40:18;17.40;87.60
47168;DHT22;32931;47.778;17.806;2023-04-24T00:42:44;17.40;88.10
47168;DHT22;32931;47.778;17.806;2023-04-24T00:45:11;17.40;88.20
47168;DHT22;32931;47.778;17.806;2023-04-24T00:47:38;17.40;87.70
47168;DHT22;32931;47.778;17.806;2023-04-24T00:50:06;17.30;87.50
47168;DHT22;32931;47.778;17.806;2023-04-24T00:52:32;17.30;88.00
47168;DHT22;32931;47.778;17.806;2023-04-24T00:54:58;17.20;88.00
47168;DHT22;32931;47.778;17.806;2023-04-24T00:57:25;17.10;87.90
47168;DHT22;32931;47.778;17.806;2023-04-24T00:59:52;17.10;87.30
47168;DHT22;32931;47.778;17.806;2023-04-24T01:02:19;17.00;87.10
47168;DHT22;32931;47.778;17.806;2023-04-24T01:04:46;16.90;87.70
47168;DHT22;32931;47.778;17.806;2023-04-24T01:07:13;16.90;87.60
47168;DHT22;32931;47.778;17.806;2023-04-24T01:09:40;16.90;87.70
47168;DHT22;32931;47.778;17.806;2023-04-24T01:12:09;16.80;88.00
47168;DHT22;32931;47.778;17.806;2023-04-24T01:14:37;16.80;88.30
47168;DHT22;32931;47.778;17.806;2023-04-24T01:17:04;16.80;88.50
47168;DHT22;32931;47.778;17.806;2023-04-24T01:19:30;16.70;88.20
47168;DHT22;32931;47.778;17.806;2023-04-24T01:21:58;16.70;88.00
47168;DHT22;32931;47.778;17.806;2023-04-24T01:24:28;16.70;88.60
47168;DHT22;32931;47.778;17.806;2023-04-24T01:26:55;16.70;89.00
47168;DHT22;32931;47.778;17.806;2023-04-24T01:29:21;16.60;89.20
47168;DHT22;32931;47.778;17.806;2023-04-24T01:31:47;16.60;89.70
47168;DHT22;32931;47.778;17.806;2023-04-24T01:34:14;16.60;90.00
47168;DHT22;32931;47.778;17.806;2023-04-24T01:36:41;16.70;90.20
47168;DHT22;32931;47.778;17.806;2023-04-24T01:39:08;16.70;90.40
47168;DHT22;32931;47.778;17.806;2023-04-24T01:41:35;16.70;90.50
47168;DHT22;32931;47.778;17.806;2023-04-24T01:44:01;16.60;90.70
47168;DHT22;32931;47.778;17.806;2023-04-24T01:46:28;16.60;90.70
47168;DHT22;32931;47.778;17.806;2023-04-24T01:48:54;16.60;90.80
47168;DHT22;32931;47.778;17.806;2023-04-24T01:51:20;16.60;90.50
47168;DHT22;32931;47.778;17.806;2023-04-24T01:53:47;16.60;90.60
47168;DHT22;32931;47.778;17.806;2023-04-24T01:56:14;16.70;90.90
47168;DHT22;32931;47.778;17.806;2023-04-24T01:58:41;16.70;91.10
47168;DHT22;32931;47.778;17.806;2023-04-24T02:01:07;16.70;91.10
47168;DHT22;32931;47.778;17.806;2023-04-24T02:03:33;16.70;91.00
47168;DHT22;32931;47.778;17.806;2023-04-24T02:05:59;16.70;91.20
47168;DHT22;32931;47.778;17.806;2023-04-24T02:08:26;16.70;91.10
47168;DHT22;32931;47.778;17.806;2023-04-24T02:10:52;16.60;90.80
47168;DHT22;32931;47.778;17.806;2023-04-24T02:13:18;16.60;90.80
47168;DHT22;32931;47.778;17.806;2023-04-24T02:15:44;16.60;90.80
47168;DHT22;32931;47.778;17.806;2023-04-24T02:18:10;16.60;90.80
47168;DHT22;32931;47.778;17.806;2023-04-24T02:20:38;16.60;90.50
47168;DHT22;32931;47.778;17.806;2023-04-24T02:23:04;16.60;90.70
47168;DHT22;32931;47.778;17.806;2023-04-24T02:25:31;16.60;90.60
47168;DHT22;32931;47.778;17.806;2023-04-24T02:27:57;16.50;90.50
47168;DHT22;32931;47.778;17.806;2023-04-24T02:30:23;16.50;90.70
47168;DHT22;32931;47.778;17.806;2023-04-24T02:32:49;16.50;90.80
47168;DHT22;32931;47.778;17.806;2023-04-24T02:35:15;16.50;90.90
47168;DHT22;32931;47.778;17.806;2023-04-24T02:37:41;16.50;91.00
47168;DHT22;32931;47.778;17.806;2023-04-24T02:40:08;16.50;91.10
47168;DHT22;32931;47.778;17.806;2023-04-24T02:42:34;16.50;91.20
47168;DHT22;32931;47.778;17.806;2023-04-24T02:45:01;16.50;90.90
47168;DHT22;32931;47.778;17.806;2023-04-24T02:47:27;16.50;90.80
47168;DHT22;32931;47.778;17.806;2023-04-24T02:49:53;16.50;90.90
47168;DHT22;32931;47.778;17.806;2023-04-24T02:52:19;16.50;90.90
47168;DHT22;32931;47.778;17.806;2023-04-24T02:54:45;16.40;90.80
47168;DHT22;32931;47.778;17.806;2023-04-24T02:57:11;16.40;90.90
47168;DHT22;32931;47.778;17.806;2023-04-24T02:59:38;16.40;90.90
47168;DHT22;32931;47.778;17.806;2023-04-24T03:02:04;16.40;90.90
47168;DHT22;32931;47.778;17.806;2023-04-24T03:04:30;16.30;90.90
47168;DHT22;32931;47.778;17.806;2023-04-24T03:06:56;16.30;90.90
47168;DHT22;32931;47.778;17.806;2023-04-24T03:09:22;16.30;90.90
47168;DHT22;32931;47.778;17.806;2023-04-24T03:11:49;16.30;91.00
47168;DHT22;32931;47.778;17.806;2023-04-24T03:14:15;16.30;90.90
47168;DHT22;32931;47.778;17.806;2023-04-24T03:16:42;16.20;90.90
47168;DHT22;32931;47.778;17.806;2023-04-24T03:19:08;16.30;91.20
47168;DHT22;32931;47.778;17.806;2023-04-24T03:21:34;16.20;91.10
47168;DHT22;32931;47.778;17.806;2023-04-24T03:24:01;16.20;91.10
47168;DHT22;32931;47.778;17.806;2023-04-24T03:26:28;16.20;91.00
47168;DHT22;32931;47.778;17.806;2023-04-24T03:28:54;16.20;91.00
47168;DHT22;32931;47.778;17.806;2023-04-24T03:31:20;16.20;91.00
47168;DHT22;32931;47.778;17.806;2023-04-24T03:33:47;16.20;91.00
47168;DHT22;32931;47.778;17.806;2023-04-24T03:36:13;16.20;91.10
47168;DHT22;32931;47.778;17.806;2023-04-24T03:38:39;16.20;91.10
47168;DHT22;32931;47.778;17.806;2023-04-24T03:41:05;16.20;91.10
47168;DHT22;32931;47.778;17.806;2023-04-24T03:43:31;16.20;91.10
47168;DHT22;32931;47.778;17.806;2023-04-24T03:45:59;16.20;91.10
47168;DHT22;32931;47.778;17.806;2023-04-24T03:48:25;16.20;91.10
47168;DHT22;32931;47.778;17.806;2023-04-24T03:50:51;16.20;91.10
47168;DHT22;32931;47.778;17.806;2023-04-24T03:53:17;16.20;91.10
47168;DHT22;32931;47.778;17.806;2023-04-24T03:55:46;16.10;91.20
47168;DHT22;32931;47.778;17.806;2023-04-24T03:58:12;16.10;91.30
47168;DHT22;32931;47.778;17.806;2023-04-24T04:00:40;16.10;91.30
47168;DHT22;32931;47.778;17.806;2023-04-24T04:03:07;16.20;91.30
47168;DHT22;32931;47.778;17.806;2023-04-24T04:05:33;16.10;91.30
47168;DHT22;32931;47.778;17.806;2023-04-24T04:07:59;16.10;91.30
47168;DHT22;32931;47.778;17.806;2023-04-24T04:10:26;16.10;91.30
47168;DHT22;32931;47.778;17.806;2023-04-24T04:12:52;16.10;91.50
47168;DHT22;32931;47.778;17.806;2023-04-24T04:15:18;16.10;91.40
47168;DHT22;32931;47.778;17.806;2023-04-24T04:17:44;16.10;91.40
47168;DHT22;32931;47.778;17.806;2023-04-24T04:20:11;16.00;91.50
47168;DHT22;32931;47.778;17.806;2023-04-24T04:22:38;16.00;91.60
47168;DHT22;32931;47.778;17.806;2023-04-24T04:25:05;16.00;91.60
47168;DHT22;32931;47.778;17.806;2023-04-24T04:27:32;16.00;91.70
47168;DHT22;32931;47.778;17.806;2023-04-24T04:29:59;16.00;91.70
47168;DHT22;32931;47.778;17.806;2023-04-24T04:32:28;16.00;91.60
47168;DHT22;32931;47.778;17.806;2023-04-24T04:34:55;16.10;91.60
47168;DHT22;32931;47.778;17.806;2023-04-24T04:37:21;16.10;91.90
47168;DHT22;32931;47.778;17.806;2023-04-24T04:39:47;16.10;91.80
47168;DHT22;32931;47.778;17.806;2023-04-24T04:42:13;16.20;91.90
47168;DHT22;32931;47.778;17.806;2023-04-24T04:44:39;16.20;91.90
47168;DHT22;32931;47.778;17.806;2023-04-24T04:47:06;16.20;92.10
47168;DHT22;32931;47.778;17.806;2023-04-24T04:49:34;16.20;92.30
47168;DHT22;32931;47.778;17.806;2023-04-24T04:52:00;16.30;92.30
47168;DHT22;32931;47.778;17.806;2023-04-24T04:54:27;16.30;92.50
47168;DHT22;32931;47.778;17.806;2023-04-24T04:56:53;16.30;92.10
47168;DHT22;32931;47.778;17.806;2023-04-24T04:59:19;16.30;92.10
47168;DHT22;32931;47.778;17.806;2023-04-24T05:01:45;16.30;91.80
47168;DHT22;32931;47.778;17.806;2023-04-24T05:04:11;16.30;91.90
47168;DHT22;32931;47.778;17.806;2023-04-24T05:06:38;16.40;92.10
47168;DHT22;32931;47.778;17.806;2023-04-24T05:09:04;16.40;92.10
47168;DHT22;32931;47.778;17.806;2023-04-24T05:11:30;16.40;92.20
47168;DHT22;32931;47.778;17.806;2023-04-24T05:13:56;16.40;92.10
47168;DHT22;32931;47.778;17.806;2023-04-24T05:16:22;16.40;92.10
47168;DHT22;32931;47.778;17.806;2023-04-24T05:18:48;16.40;92.10
47168;DHT22;32931;47.778;17.806;2023-04-24T05:21:14;16.40;92.10
47168;DHT22;32931;47.778;17.806;2023-04-24T05:23:41;16.40;92.20
47168;DHT22;32931;47.778;17.806;2023-04-24T05:26:07;16.50;92.40
47168;DHT22;32931;47.778;17.806;2023-04-24T05:28:33;16.50;92.50
47168;DHT22;32931;47.778;17.806;2023-04-24T05:30:59;16.50;92.50
47168;DHT22;32931;47.778;17.806;2023-04-24T05:33:26;16.60;92.70
47168;DHT22;32931;47.778;17.806;2023-04-24T05:35:54;16.60;92.90
47168;DHT22;32931;47.778;17.806;2023-04-24T05:38:20;16.70;93.00
47168;DHT22;32931;47.778;17.806;2023-04-24T05:40:47;16.70;93.00
47168;DHT22;32931;47.778;17.806;2023-04-24T05:43:13;16.70;93.10
47168;DHT22;32931;47.778;17.806;2023-04-24T05:45:39;16.70;93.10
47168;DHT22;32931;47.778;17.806;2023-04-24T05:48:05;16.70;93.10
47168;DHT22;32931;47.778;17.806;2023-04-24T05:50:32;16.80;93.20
47168;DHT22;32931;47.778;17.806;2023-04-24T05:52:58;16.80;93.30
47168;DHT22;32931;47.778;17.806;2023-04-24T05:55:25;16.90;93.00
47168;DHT22;32931;47.778;17.806;2023-04-24T05:57:51;16.90;93.00
47168;DHT22;32931;47.778;17.806;2023-04-24T06:00:18;16.90;92.40
47168;DHT22;32931;47.778;17.806;2023-04-24T06:02:46;16.90;92.20
47168;DHT22;32931;47.778;17.806;2023-04-24T06:05:13;17.00;92.10
47168;DHT22;32931;47.778;17.806;2023-04-24T06:07:39;17.00;92.20
47168;DHT22;32931;47.778;17.806;2023-04-24T06:10:06;17.00;92.20
47168;DHT22;32931;47.778;17.806;2023-04-24T06:12:32;17.10;92.50
47168;DHT22;32931;47.778;17.806;2023-04-24T06:14:59;17.20;92.20
47168;DHT22;32931;47.778;17.806;2023-04-24T06:17:26;17.20;92.40
47168;DHT22;32931;47.778;17.806;2023-04-24T06:19:52;17.30;92.60
47168;DHT22;32931;47.778;17.806;2023-04-24T06:22:18;17.40;92.60
47168;DHT22;32931;47.778;17.806;2023-04-24T06:24:44;17.50;92.20
47168;DHT22;32931;47.778;17.806;2023-04-24T06:27:10;17.50;92.10
47168;DHT22;32931;47.778;17.806;2023-04-24T06:29:37;17.60;91.60
47168;DHT22;32931;47.778;17.806;2023-04-24T06:32:03;17.70;91.60
47168;DHT22;32931;47.778;17.806;2023-04-24T06:34:29;17.80;91.60
47168;DHT22;32931;47.778;17.806;2023-04-24T06:36:56;17.90;91.20
47168;DHT22;32931;47.778;17.806;2023-04-24T06:39:22;18.00;90.90
47168;DHT22;32931;47.778;17.806;2023-04-24T06:41:49;18.00;90.70
47168;DHT22;32931;47.778;17.806;2023-04-24T06:44:15;18.00;91.10
47168;DHT22;32931;47.778;17.806;2023-04-24T06:46:41;18.00;91.20
47168;DHT22;32931;47.778;17.806;2023-04-24T06:49:07;17.90;91.70
47168;DHT22;32931;47.778;17.806;2023-04-24T06:51:34;17.80;91.90
47168;DHT22;32931;47.778;17.806;2023-04-24T06:54:00;17.80;91.90
47168;DHT22;32931;47.778;17.806;2023-04-24T06:56:26;17.80;91.90
47168;DHT22;32931;47.778;17.806;2023-04-24T06:58:52;17.70;92.10
47168;DHT22;32931;47.778;17.806;2023-04-24T07:01:19;17.70;92.40
47168;DHT22;32931;47.778;17.806;2023-04-24T07:03:45;17.60;92.30
47168;DHT22;32931;47.778;17.806;2023-04-24T07:06:11;17.70;92.60
47168;DHT22;32931;47.778;17.806;2023-04-24T07:08:38;17.80;92.90
47168;DHT22;32931;47.778;17.806;2023-04-24T07:11:05;17.60;93.30
47168;DHT22;32931;47.778;17.806;2023-04-24T07:13:31;17.70;93.80
47168;DHT22;32931;47.778;17.806;2023-04-24T07:15:57;17.60;93.50
47168;DHT22;32931;47.778;17.806;2023-04-24T07:18:24;17.50;93.70
47168;DHT22;32931;47.778;17.806;2023-04-24T07:20:50;17.50;94.20
47168;DHT22;32931;47.778;17.806;2023-04-24T07:23:17;17.40;94.20
47168;DHT22;32931;47.778;17.806;2023-04-24T07:25:43;17.40;94.20
47168;DHT22;32931;47.778;17.806;2023-04-24T07:28:10;17.40;94.30
47168;DHT22;32931;47.778;17.806;2023-04-24T07:30:36;17.40;94.50
47168;DHT22;32931;47.778;17.806;2023-04-24T07:33:02;17.50;94.20
47168;DHT22;32931;47.778;17.806;2023-04-24T07:35:28;17.50;94.40
47168;DHT22;32931;47.778;17.806;2023-04-24T07:37:55;17.50;94.70
47168;DHT22;32931;47.778;17.806;2023-04-24T07:40:21;17.50;95.00
47168;DHT22;32931;47.778;17.806;2023-04-24T07:42:47;17.40;95.10
47168;DHT22;32931;47.778;17.806;2023-04-24T07:45:17;17.50;95.40
47168;DHT22;32931;47.778;17.806;2023-04-24T07:47:43;17.60;95.90
47168;DHT22;32931;47.778;17.806;2023-04-24T07:50:11;17.60;95.80
47168;DHT22;32931;47.778;17.806;2023-04-24T07:52:38;17.50;96.20
47168;DHT22;32931;47.778;17.806;2023-04-24T07:55:05;17.70;96.20
47168;DHT22;32931;47.778;17.806;2023-04-24T07:57:31;17.80;95.60
47168;DHT22;32931;47.778;17.806;2023-04-24T07:59:57;17.70;95.30
47168;DHT22;32931;47.778;17.806;2023-04-24T08:02:23;17.70;95.50
47168;DHT22;32931;47.778;17.806;2023-04-24T08:04:55;17.80;95.70
47168;DHT22;32931;47.778;17.806;2023-04-24T08:07:21;18.00;96.40
47168;DHT22;32931;47.778;17.806;2023-04-24T08:09:47;18.00;95.60
47168;DHT22;32931;47.778;17.806;2023-04-24T08:12:13;18.10;96.00
47168;DHT22;32931;47.778;17.806;2023-04-24T08:14:40;18.20;96.00
47168;DHT22;32931;47.778;17.806;2023-04-24T08:17:06;18.10;95.50
47168;DHT22;32931;47.778;17.806;2023-04-24T08:19:32;18.00;95.60
47168;DHT22;32931;47.778;17.806;2023-04-24T08:21:58;18.00;95.70
47168;DHT22;32931;47.778;17.806;2023-04-24T08:24:24;18.10;95.60
47168;DHT22;32931;47.778;17.806;2023-04-24T08:26:51;18.20;95.20
47168;DHT22;32931;47.778;17.806;2023-04-24T08:29:18;18.30;94.90
47168;DHT22;32931;47.778;17.806;2023-04-24T08:31:44;18.30;95.20
47168;DHT22;32931;47.778;17.806;2023-04-24T08:34:10;18.40;95.00
47168;DHT22;32931;47.778;17.806;2023-04-24T08:36:37;18.40;95.00
47168;DHT22;32931;47.778;17.806;2023-04-24T08:39:03;18.30;95.30
47168;DHT22;32931;47.778;17.806;2023-04-24T08:41:30;18.40;95.60
47168;DHT22;32931;47.778;17.806;2023-04-24T08:43:57;18.70;96.00
47168;DHT22;32931;47.778;17.806;2023-04-24T08:46:24;18.90;96.00
47168;DHT22;32931;47.778;17.806;2023-04-24T08:48:52;19.00;95.70
47168;DHT22;32931;47.778;17.806;2023-04-24T08:51:19;19.10;95.00
47168;DHT22;32931;47.778;17.806;2023-04-24T08:53:46;19.10;94.90
47168;DHT22;32931;47.778;17.806;2023-04-24T08:56:13;19.10;94.70
47168;DHT22;32931;47.778;17.806;2023-04-24T08:58:39;19.20;95.00
47168;DHT22;32931;47.778;17.806;2023-04-24T09:01:06;19.20;94.50
47168;DHT22;32931;47.778;17.806;2023-04-24T09:03:34;19.30;94.40
47168;DHT22;32931;47.778;17.806;2023-04-24T09:06:01;19.20;95.10
47168;DHT22;32931;47.778;17.806;2023-04-24T09:08:28;19.30;94.90
47168;DHT22;32931;47.778;17.806;2023-04-24T09:10:55;19.30;94.70
47168;DHT22;32931;47.778;17.806;2023-04-24T09:13:24;19.40;94.40
47168;DHT22;32931;47.778;17.806;2023-04-24T09:15:51;19.30;94.00
47168;DHT22;32931;47.778;17.806;2023-04-24T09:18:17;19.50;94.20
47168;DHT22;32931;47.778;17.806;2023-04-24T09:21:02;19.40;93.70
47168;DHT22;32931;47.778;17.806;2023-04-24T09:23:31;19.50;94.20
47168;DHT22;32931;47.778;17.806;2023-04-24T09:25:59;19.40;94.00
47168;DHT22;32931;47.778;17.806;2023-04-24T09:28:32;19.30;93.80
47168;DHT22;32931;47.778;17.806;2023-04-24T09:31:11;19.10;93.80
47168;DHT22;32931;47.778;17.806;2023-04-24T09:33:37;19.10;94.50
47168;DHT22;32931;47.778;17.806;2023-04-24T09:36:04;19.00;93.60
47168;DHT22;32931;47.778;17.806;2023-04-24T09:38:35;19.10;93.90
47168;DHT22;32931;47.778;17.806;2023-04-24T09:41:08;19.10;94.40
47168;DHT22;32931;47.778;17.806;2023-04-24T09:43:39;19.10;94.60
47168;DHT22;32931;47.778;17.806;2023-04-24T09:46:07;19.10;94.20
47168;DHT22;32931;47.778;17.806;2023-04-24T09:48:36;19.20;94.80
47168;DHT22;32931;47.778;17.806;2023-04-24T09:51:04;19.30;94.30
47168;DHT22;32931;47.778;17.806;2023-04-24T09:53:33;19.20;93.70
47168;DHT22;32931;47.778;17.806;2023-04-24T09:56:07;19.20;93.90
47168;DHT22;32931;47.778;17.806;2023-04-24T09:58:35;19.30;94.30
47168;DHT22;32931;47.778;17.806;2023-04-24T10:01:02;19.30;94.90
47168;DHT22;32931;47.778;17.806;2023-04-24T10:03:33;19.30;94.50
47168;DHT22;32931;47.778;17.806;2023-04-24T10:06:00;19.20;94.10
47168;DHT22;32931;47.778;17.806;2023-04-24T10:08:33;19.30;94.30
47168;DHT22;32931;47.778;17.806;2023-04-24T10:11:00;19.30;94.90
47168;DHT22;32931;47.778;17.806;2023-04-24T10:13:28;19.30;94.20
47168;DHT22;32931;47.778;17.806;2023-04-24T10:15:54;19.20;94.10
47168;DHT22;32931;47.778;17.806;2023-04-24T10:18:23;19.00;94.20
47168;DHT22;32931;47.778;17.806;2023-04-24T10:20:50;18.80;94.30
47168;DHT22;32931;47.778;17.806;2023-04-24T10:23:16;18.60;94.60
47168;DHT22;32931;47.778;17.806;2023-04-24T10:25:45;18.50;95.00
47168;DHT22;32931;47.778;17.806;2023-04-24T10:28:12;18.50;95.70
47168;DHT22;32931;47.778;17.806;2023-04-24T10:30:39;18.50;95.80
47168;DHT22;32931;47.778;17.806;2023-04-24T10:33:08;18.40;95.40
47168;DHT22;32931;47.778;17.806;2023-04-24T10:35:43;18.30;96.00
47168;DHT22;32931;47.778;17.806;2023-04-24T10:38:15;18.20;96.40
47168;DHT22;32931;47.778;17.806;2023-04-24T10:40:43;18.10;96.40
47168;DHT22;32931;47.778;17.806;2023-04-24T10:43:10;18.20;96.30
47168;DHT22;32931;47.778;17.806;2023-04-24T10:45:38;18.20;96.30
47168;DHT22;32931;47.778;17.806;2023-04-24T10:48:06;18.20;96.50
47168;DHT22;32931;47.778;17.806;2023-04-24T10:50:47;18.00;96.20
47168;DHT22;32931;47.778;17.806;2023-04-24T10:53:24;18.00;96.30
47168;DHT22;32931;47.778;17.806;2023-04-24T10:56:06;18.00;95.80
47168;DHT22;32931;47.778;17.806;2023-04-24T10:58:51;18.00;95.70
47168;DHT22;32931;47.778;17.806;2023-04-24T11:03:57;18.10;96.00
47168;DHT22;32931;47.778;17.806;2023-04-24T11:06:33;18.10;96.00
47168;DHT22;32931;47.778;17.806;2023-04-24T11:09:07;18.20;96.00
47168;DHT22;32931;47.778;17.806;2023-04-24T11:11:35;18.10;95.90
47168;DHT22;32931;47.778;17.806;2023-04-24T11:14:05;17.90;95.70
47168;DHT22;32931;47.778;17.806;2023-04-24T11:16:54;17.80;96.00
47168;DHT22;32931;47.778;17.806;2023-04-24T11:19:25;17.70;95.90
47168;DHT22;32931;47.778;17.806;2023-04-24T11:22:02;17.70;95.90
47168;DHT22;32931;47.778;17.806;2023-04-24T11:27:16;17.60;96.40
47168;DHT22;32931;47.778;17.806;2023-04-24T11:32:50;17.60;96.60
47168;DHT22;32931;47.778;17.806;2023-04-24T11:35:17;17.40;96.70
47168;DHT22;32931;47.778;17.806;2023-04-24T11:37:46;17.20;97.40
47168;DHT22;32931;47.778;17.806;2023-04-24T11:40:15;17.20;98.00
47168;DHT22;32931;47.778;17.806;2023-04-24T11:42:45;17.10;98.40
47168;DHT22;32931;47.778;17.806;2023-04-24T11:45:12;17.10;98.70
47168;DHT22;32931;47.778;17.806;2023-04-24T11:47:39;17.00;98.60
47168;DHT22;32931;47.778;17.806;2023-04-24T11:50:08;16.90;98.80
47168;DHT22;32931;47.778;17.806;2023-04-24T11:52:39;16.90;99.10
47168;DHT22;32931;47.778;17.806;2023-04-24T11:57:50;16.70;99.60
47168;DHT22;32931;47.778;17.806;2023-04-24T12:00:30;16.70;99.90
47168;DHT22;32931;47.778;17.806;2023-04-24T12:03:09;16.70;99.90
47168;DHT22;32931;47.778;17.806;2023-04-24T12:05:36;16.60;99.90
47168;DHT22;32931;47.778;17.806;2023-04-24T12:08:02;16.60;99.90
47168;DHT22;32931;47.778;17.806;2023-04-24T12:10:29;16.50;99.90
47168;DHT22;32931;47.778;17.806;2023-04-24T12:12:57;16.50;99.90
47168;DHT22;32931;47.778;17.806;2023-04-24T12:15:24;16.50;99.90
47168;DHT22;32931;47.778;17.806;2023-04-24T12:17:52;16.40;99.70
47168;DHT22;32931;47.778;17.806;2023-04-24T12:20:26;16.30;99.80
47168;DHT22;32931;47.778;17.806;2023-04-24T12:22:54;16.20;99.90
47168;DHT22;32931;47.778;17.806;2023-04-24T12:25:27;16.20;99.90
47168;DHT22;32931;47.778;17.806;2023-04-24T12:30:34;16.30;99.90
47168;DHT22;32931;47.778;17.806;2023-04-24T12:33:02;16.30;99.90
47168;DHT22;32931;47.778;17.806;2023-04-24T12:35:31;16.30;99.90
47168;DHT22;32931;47.778;17.806;2023-04-24T12:38:15;16.20;99.90
47168;DHT22;32931;47.778;17.806;2023-04-24T12:40:42;16.30;99.90
47168;DHT22;32931;47.778;17.806;2023-04-24T12:43:17;16.20;99.90
47168;DHT22;32931;47.778;17.806;2023-04-24T12:45:43;16.10;99.90
47168;DHT22;32931;47.778;17.806;2023-04-24T12:48:11;16.00;99.90
47168;DHT22;32931;47.778;17.806;2023-04-24T12:50:38;16.00;99.90
47168;DHT22;32931;47.778;17.806;2023-04-24T12:53:05;16.00;99.90
47168;DHT22;32931;47.778;17.806;2023-04-24T12:55:32;15.90;99.90
47168;DHT22;32931;47.778;17.806;2023-04-24T12:57:58;15.70;99.90
47168;DHT22;32931;47.778;17.806;2023-04-24T13:00:24;15.60;99.90
47168;DHT22;32931;47.778;17.806;2023-04-24T13:02:51;15.60;99.90
47168;DHT22;32931;47.778;17.806;2023-04-24T13:05:17;15.60;99.90
47168;DHT22;32931;47.778;17.806;2023-04-24T13:07:43;15.60;99.90
47168;DHT22;32931;47.778;17.806;2023-04-24T13:10:10;15.60;99.90
47168;DHT22;32931;47.778;17.806;2023-04-24T13:12:36;15.50;99.90
47168;DHT22;32931;47.778;17.806;2023-04-24T13:15:03;15.50;99.90
47168;DHT22;32931;47.778;17.806;2023-04-24T13:17:29;15.50;99.90
47168;DHT22;32931;47.778;17.806;2023-04-24T13:19:55;15.60;99.90
47168;DHT22;32931;47.778;17.806;2023-04-24T13:22:22;15.60;99.90
47168;DHT22;32931;47.778;17.806;2023-04-24T13:24:48;15.60;99.90
47168;DHT22;32931;47.778;17.806;2023-04-24T13:27:17;15.50;99.90
47168;DHT22;32931;47.778;17.806;2023-04-24T13:29:44;15.60;99.90
47168;DHT22;32931;47.778;17.806;2023-04-24T13:32:10;15.60;99.90
47168;DHT22;32931;47.778;17.806;2023-04-24T13:34:36;15.60;99.90
47168;DHT22;32931;47.778;17.806;2023-04-24T13:37:03;15.50;99.90
47168;DHT22;32931;47.778;17.806;2023-04-24T13:39:30;15.50;99.90
47168;DHT22;32931;47.778;17.806;2023-04-24T13:41:57;15.50;99.90
47168;DHT22;32931;47.778;17.806;2023-04-24T13:44:23;15.60;99.90
47168;DHT22;32931;47.778;17.806;2023-04-24T13:46:51;15.60;99.90
47168;DHT22;32931;47.778;17.806;2023-04-24T13:49:20;15.50;99.90
47168;DHT22;32931;47.778;17.806;2023-04-24T13:51:47;15.50;99.90
47168;DHT22;32931;47.778;17.806;2023-04-24T13:54:13;15.50;99.90
47168;DHT22;32931;47.778;17.806;2023-04-24T13:56:40;15.50;99.90
47168;DHT22;32931;47.778;17.806;2023-04-24T13:59:06;15.50;99.90
47168;DHT22;32931;47.778;17.806;2023-04-24T14:01:33;15.50;99.90
47168;DHT22;32931;47.778;17.806;2023-04-24T14:03:59;15.50;99.90
47168;DHT22;32931;47.778;17.806;2023-04-24T14:06:25;15.50;99.90
47168;DHT22;32931;47.778;17.806;2023-04-24T14:08:52;15.60;99.90
47168;DHT22;32931;47.778;17.806;2023-04-24T14:11:19;15.60;99.90
47168;DHT22;32931;47.778;17.806;2023-04-24T14:13:45;15.70;99.90
47168;DHT22;32931;47.778;17.806;2023-04-24T14:16:12;15.60;99.90
47168;DHT22;32931;47.778;17.806;2023-04-24T14:18:38;15.60;99.90
47168;DHT22;32931;47.778;17.806;2023-04-24T14:21:05;15.50;99.90
47168;DHT22;32931;47.778;17.806;2023-04-24T14:23:31;15.40;99.90
47168;DHT22;32931;47.778;17.806;2023-04-24T14:25:58;15.30;99.90
47168;DHT22;32931;47.778;17.806;2023-04-24T14:28:25;15.30;99.90
47168;DHT22;32931;47.778;17.806;2023-04-24T14:30:52;15.30;99.90
47168;DHT22;32931;47.778;17.806;2023-04-24T14:33:18;15.30;99.90
47168;DHT22;32931;47.778;17.806;2023-04-24T14:35:45;15.20;99.90
47168;DHT22;32931;47.778;17.806;2023-04-24T14:38:11;15.10;99.90
47168;DHT22;32931;47.778;17.806;2023-04-24T14:40:38;15.20;99.90
47168;DHT22;32931;47.778;17.806;2023-04-24T14:43:04;15.20;99.90
47168;DHT22;32931;47.778;17.806;2023-04-24T14:45:30;15.20;99.90
47168;DHT22;32931;47.778;17.806;2023-04-24T14:47:57;15.30;99.90
47168;DHT22;32931;47.778;17.806;2023-04-24T14:50:23;15.20;99.90
47168;DHT22;32931;47.778;17.806;2023-04-24T14:52:54;15.30;99.90
47168;DHT22;32931;47.778;17.806;2023-04-24T14:55:23;15.40;99.90
47168;DHT22;32931;47.778;17.806;2023-04-24T14:57:50;15.40;99.90
47168;DHT22;32931;47.778;17.806;2023-04-24T15:00:16;15.50;99.90
47168;DHT22;32931;47.778;17.806;2023-04-24T15:02:43;15.60;99.90
47168;DHT22;32931;47.778;17.806;2023-04-24T15:05:10;15.60;99.90
47168;DHT22;32931;47.778;17.806;2023-04-24T15:07:37;15.60;99.90
47168;DHT22;32931;47.778;17.806;2023-04-24T15:10:04;15.60;99.90
47168;DHT22;32931;47.778;17.806;2023-04-24T15:12:31;15.60;99.90
47168;DHT22;32931;47.778;17.806;2023-04-24T15:14:58;15.70;99.90
47168;DHT22;32931;47.778;17.806;2023-04-24T15:17:25;15.70;99.90
47168;DHT22;32931;47.778;17.806;2023-04-24T15:19:51;15.70;99.90
47168;DHT22;32931;47.778;17.806;2023-04-24T15:22:17;15.60;99.90
47168;DHT22;32931;47.778;17.806;2023-04-24T15:24:43;15.60;99.90
47168;DHT22;32931;47.778;17.806;2023-04-24T15:27:10;15.60;99.90
47168;DHT22;32931;47.778;17.806;2023-04-24T15:29:37;15.60;99.90